Time;durP1;ratioP1;P1;durP2;ratioP2;P2;SDS_P1;SDS_P2;PMS_P1;PMS_P2;Temp;Humidity;BMP_temperature;BMP_pressure;BME280_temperature;BME280_humidity;BME280_pressure;Samples;Min_cycle;Max_cycle;Signal;HPM_P1;HPM_P2
2022/11/29 00:00:05;;;;;;;;;;;;;;;;;;6117910;23;20291;-78
2022/11/29 00:02:31;;;;;;;;;;;;;;;;;;6143788;23;20004;-78
2022/11/29 00:04:57;;;;;;;;;;;;;;;;;;6142995;23;19983;-79
2022/11/29 00:07:23;;;;;;;;;;;;;;;;;;6142965;23;19927;-78
2022/11/29 00:09:49;;;;;;;;;;;;;;;;;;6142861;23;19927;-77
2022/11/29 00:12:15;;;;;;;;;;;;;;;;;;6118118;23;20311;-79
2022/11/29 00:14:41;;;;;;;;;;;;;;;;;;6143008;23;19966;-78
2022/11/29 00:17:07;;;;;;;;;;;;;;;;;;6144373;23;20386;-78
2022/11/29 00:19:33;;;;;;;;;;;;;;;;;;6142551;23;19916;-79
2022/11/29 00:21:59;;;;;;;;;;;;;;;;;;6143572;23;19920;-77
2022/11/29 00:24:25;;;;;;;;;;;;;;;;;;6119102;23;20453;-78
2022/11/29 00:26:51;;;;;;;;;;;;;;;;;;6142703;23;19916;-79
2022/11/29 00:29:17;;;;;;;;;;;;;;;;;;6142435;23;19972;-80
2022/11/29 00:31:43;;;;;;;;;;;;;;;;;;6143206;23;20331;-79
2022/11/29 00:34:09;;;;;;;;;;;;;;;;;;6119631;23;19916;-79
2022/11/29 00:36:35;;;;;;;;;;;;;;;;;;6144523;23;20645;-81
2022/11/29 00:39:01;;;;;;;;;;;;;;;;;;6145120;23;19967;-80
2022/11/29 00:41:27;;;;;;;;;;;;;;;;;;6119819;23;20285;-80
2022/11/29 00:43:52;;;;;;;;;;;;;;;;;;6144979;23;19916;-81
2022/11/29 00:46:18;;;;;;;;;;;;;;;;;;6144697;23;19924;-80
2022/11/29 00:48:44;;;;;;;;;;;;;;;;;;6144971;23;19923;-80
2022/11/29 00:51:10;;;;;;;;;;;;;;;;;;6119555;23;19966;-80
2022/11/29 00:53:36;;;;;;;;;;;;;;;;;;6144679;23;19916;-81
2022/11/29 00:56:02;;;;;;;;;;;;;;;;;;6144160;23;20370;-80
2022/11/29 00:58:28;;;;;;;;;;;;;;;;;;6145081;23;19912;-80
2022/11/29 01:00:54;;;;;;;;;;;;;;;;;;6144665;23;19916;-81
2022/11/29 01:03:20;;;;;;;;;;;;;;;;;;6120504;23;19924;-81
2022/11/29 01:05:46;;;;;;;;;;;;;;;;;;6144525;23;19916;-80
2022/11/29 01:08:12;;;;;;;;;;;;;;;;;;6144261;23;19921;-80
2022/11/29 01:10:38;;;;;;;;;;;;;;;;;;6119349;23;19938;-80
2022/11/29 01:13:04;;;;;;;;;;;;;;;;;;6144255;23;19920;-80
2022/11/29 01:15:29;;;;;;;;;;;;;;;;;;6143848;23;19995;-80
2022/11/29 01:17:55;;;;;;;;;;;;;;;;;;6143997;23;20264;-81
2022/11/29 01:20:21;;;;;;;;;;;;;;;;;;6143017;23;19924;-80
2022/11/29 01:22:47;;;;;;;;;;;;;;;;;;6143902;23;19920;-80
2022/11/29 01:25:13;;;;;;;;;;;;;;;;;;6143955;23;19943;-80
2022/11/29 01:27:39;;;;;;;;;;;;;;;;;;6142916;23;20277;-81
2022/11/29 01:30:05;;;;;;;;;;;;;;;;;;6141327;23;19927;-80
2022/11/29 01:32:31;;;;;;;;;;;;;;;;;;6144120;23;20002;-81
2022/11/29 01:34:57;;;;;;;;;;;;;;;;;;6142658;23;19916;-81
2022/11/29 01:37:23;;;;;;;;;;;;;;;;;;6144064;23;19915;-80
2022/11/29 01:39:49;;;;;;;;;;;;;;;;;;6143111;23;19927;-80
2022/11/29 01:42:15;;;;;;;;;;;;;;;;;;6143385;23;20363;-81
2022/11/29 01:44:41;;;;;;;;;;;;;;;;;;6143798;23;19995;-81
2022/11/29 01:47:07;;;;;;;;;;;;;;;;;;6144216;23;20011;-81
2022/11/29 01:49:34;;;;;;;;;;;;;;;;;;6144356;23;20236;-81
2022/11/29 01:52:00;;;;;;;;;;;;;;;;;;6144209;23;19931;-80
2022/11/29 01:54:25;;;;;;;;;;;;;;;;;;6143384;23;20066;-81
2022/11/29 01:56:51;;;;;;;;;;;;;;;;;;6143480;23;19920;-81
2022/11/29 01:59:17;;;;;;;;;;;;;;;;;;6143652;23;19948;-81
2022/11/29 02:01:43;;;;;;;;;;;;;;;;;;6142391;23;19927;-81
2022/11/29 02:04:09;;;;;;;;;;;;;;;;;;6143360;23;20258;-81
2022/11/29 02:06:35;;;;;;;;;;;;;;;;;;6118955;23;19916;-81
2022/11/29 02:09:01;;;;;;;;;;;;;;;;;;6143074;23;20347;-81
2022/11/29 02:11:27;;;;;;;;;;;;;;;;;;6144502;23;19971;-81
2022/11/29 02:13:53;;;;;;;;;;;;;;;;;;6143813;23;20312;-81
2022/11/29 02:16:19;;;;;;;;;;;;;;;;;;6141895;23;19924;-80
2022/11/29 02:18:45;;;;;;;;;;;;;;;;;;6143623;23;20275;-80
2022/11/29 02:21:11;;;;;;;;;;;;;;;;;;6143749;23;19971;-80
2022/11/29 02:23:38;;;;;;;;;;;;;;;;;;6144439;23;19916;-80
2022/11/29 02:26:04;;;;;;;;;;;;;;;;;;6142155;23;19923;-80
2022/11/29 02:28:30;;;;;;;;;;;;;;;;;;6143472;23;19916;-81
2022/11/29 02:30:56;;;;;;;;;;;;;;;;;;6118310;23;19948;-80
2022/11/29 02:33:22;;;;;;;;;;;;;;;;;;6118713;23;20003;-80
2022/11/29 02:35:48;;;;;;;;;;;;;;;;;;6144965;23;19931;-79
2022/11/29 02:38:13;;;;;;;;;;;;;;;;;;6145329;23;19916;-80
2022/11/29 02:40:39;;;;;;;;;;;;;;;;;;6144153;23;19916;-80
2022/11/29 02:43:05;;;;;;;;;;;;;;;;;;6145308;23;19959;-80
2022/11/29 02:45:31;;;;;;;;;;;;;;;;;;6143137;23;20379;-80
2022/11/29 02:47:57;;;;;;;;;;;;;;;;;;6144883;23;19947;-80
2022/11/29 02:50:23;;;;;;;;;;;;;;;;;;6145221;23;19920;-81
2022/11/29 02:52:49;;;;;;;;;;;;;;;;;;6145185;23;19916;-80
2022/11/29 02:55:15;;;;;;;;;;;;;;;;;;6144000;23;19916;-80
2022/11/29 02:57:41;;;;;;;;;;;;;;;;;;6145203;23;20387;-80
2022/11/29 03:00:07;;;;;;;;;;;;;;;;;;6144353;23;19916;-80
2022/11/29 03:02:33;;;;;;;;;;;;;;;;;;6143526;23;19927;-80
2022/11/29 03:04:59;;;;;;;;;;;;;;;;;;6120844;23;19923;-80
2022/11/29 03:07:25;;;;;;;;;;;;;;;;;;6145499;23;20031;-80
2022/11/29 03:09:51;;;;;;;;;;;;;;;;;;6144649;23;19916;-80
2022/11/29 03:12:17;;;;;;;;;;;;;;;;;;6143868;23;19923;-79
2022/11/29 03:14:43;;;;;;;;;;;;;;;;;;6144343;23;20312;-80
2022/11/29 03:17:09;;;;;;;;;;;;;;;;;;6143598;23;19916;-80
2022/11/29 03:19:35;;;;;;;;;;;;;;;;;;6144678;23;19916;-80
2022/11/29 03:22:01;;;;;;;;;;;;;;;;;;6144695;23;19931;-79
2022/11/29 03:24:27;;;;;;;;;;;;;;;;;;6144444;23;20328;-80
2022/11/29 03:26:53;;;;;;;;;;;;;;;;;;6119964;23;19970;-80
2022/11/29 03:29:19;;;;;;;;;;;;;;;;;;6119936;23;19966;-80
2022/11/29 03:31:45;;;;;;;;;;;;;;;;;;6144171;23;20399;-79
2022/11/29 03:34:11;;;;;;;;;;;;;;;;;;6120622;23;19912;-79
2022/11/29 03:36:37;;;;;;;;;;;;;;;;;;6144929;23;20356;-79
2022/11/29 03:39:03;;;;;;;;;;;;;;;;;;6144554;23;19982;-79
2022/11/29 03:41:29;;;;;;;;;;;;;;;;;;6119424;23;19960;-80
2022/11/29 03:43:55;;;;;;;;;;;;;;;;;;6143739;23;20597;-80
2022/11/29 03:46:21;;;;;;;;;;;;;;;;;;6142963;23;19916;-80
2022/11/29 03:48:47;;;;;;;;;;;;;;;;;;6145431;23;19916;-80
2022/11/29 03:51:12;;;;;;;;;;;;;;;;;;6145063;23;20001;-80
2022/11/29 03:53:38;;;;;;;;;;;;;;;;;;6119648;23;19935;-80
2022/11/29 03:56:04;;;;;;;;;;;;;;;;;;6143896;23;19923;-81
2022/11/29 03:58:30;;;;;;;;;;;;;;;;;;6144288;23;19916;-80
2022/11/29 04:00:56;;;;;;;;;;;;;;;;;;6144172;23;19916;-80
2022/11/29 04:03:22;;;;;;;;;;;;;;;;;;6143869;23;20023;-80
2022/11/29 04:05:48;;;;;;;;;;;;;;;;;;6144837;23;20309;-80
2022/11/29 04:08:14;;;;;;;;;;;;;;;;;;6145402;23;19920;-80
2022/11/29 04:10:40;;;;;;;;;;;;;;;;;;6119848;23;19955;-80
2022/11/29 04:13:06;;;;;;;;;;;;;;;;;;6143482;23;20025;-79
2022/11/29 04:15:32;;;;;;;;;;;;;;;;;;6146407;23;19919;-81
2022/11/29 04:17:58;;;;;;;;;;;;;;;;;;6120067;23;20217;-81
2022/11/29 04:20:24;;;;;;;;;;;;;;;;;;6144781;23;20361;-80
2022/11/29 04:22:50;;;;;;;;;;;;;;;;;;6144162;23;19927;-81
2022/11/29 04:25:16;;;;;;;;;;;;;;;;;;6144230;23;19919;-80
2022/11/29 04:27:41;;;;;;;;;;;;;;;;;;6143712;23;19951;-80
2022/11/29 04:30:07;;;;;;;;;;;;;;;;;;6144576;23;19920;-80
2022/11/29 04:32:33;;;;;;;;;;;;;;;;;;6143701;23;20009;-80
2022/11/29 04:34:59;;;;;;;;;;;;;;;;;;6119553;23;19922;-80
2022/11/29 04:37:25;;;;;;;;;;;;;;;;;;6119257;23;20406;-80
2022/11/29 04:39:51;;;;;;;;;;;;;;;;;;6144439;23;19920;-81
2022/11/29 04:42:17;;;;;;;;;;;;;;;;;;6143882;23;19920;-80
2022/11/29 04:44:43;;;;;;;;;;;;;;;;;;6143644;23;20273;-80
2022/11/29 04:47:09;;;;;;;;;;;;;;;;;;6120136;23;20411;-81
2022/11/29 04:49:35;;;;;;;;;;;;;;;;;;6143589;23;19952;-81
2022/11/29 04:52:01;;;;;;;;;;;;;;;;;;6144579;23;19923;-81
2022/11/29 04:54:27;;;;;;;;;;;;;;;;;;6143598;23;20336;-81
2022/11/29 04:56:53;;;;;;;;;;;;;;;;;;6119215;23;20081;-81
2022/11/29 04:59:19;;;;;;;;;;;;;;;;;;6143983;23;19931;-81
2022/11/29 05:01:44;;;;;;;;;;;;;;;;;;6144384;23;20279;-82
2022/11/29 05:04:10;;;;;;;;;;;;;;;;;;6143641;23;19923;-80
2022/11/29 05:06:37;;;;;;;;;;;;;;;;;;6119253;23;19982;-80
2022/11/29 05:09:03;;;;;;;;;;;;;;;;;;6144287;23;20374;-80
2022/11/29 05:11:29;;;;;;;;;;;;;;;;;;6144525;23;20633;-81
2022/11/29 05:13:55;;;;;;;;;;;;;;;;;;6168640;23;19928;-80
2022/11/29 05:16:21;;;;;;;;;;;;;;;;;;6144010;23;20323;-80
2022/11/29 05:18:47;;;;;;;;;;;;;;;;;;6119285;23;19916;-79
2022/11/29 05:21:13;;;;;;;;;;;;;;;;;;6143552;23;19986;-80
2022/11/29 05:23:39;;;;;;;;;;;;;;;;;;6144052;23;19920;-79
2022/11/29 05:26:05;;;;;;;;;;;;;;;;;;6143768;23;20352;-80
2022/11/29 05:28:31;;;;;;;;;;;;;;;;;;6144132;23;19930;-80
2022/11/29 05:30:57;;;;;;;;;;;;;;;;;;6142508;23;19920;-79
2022/11/29 05:33:23;;;;;;;;;;;;;;;;;;6143062;23;19923;-79
2022/11/29 05:35:49;;;;;;;;;;;;;;;;;;6143779;23;19916;-88
2022/11/29 05:38:15;;;;;;;;;;;;;;;;;;6144188;23;20031;-84
2022/11/29 05:40:41;;;;;;;;;;;;;;;;;;6145500;23;19916;-80
2022/11/29 05:43:07;;;;;;;;;;;;;;;;;;6144555;23;20387;-81
2022/11/29 05:45:33;;;;;;;;;;;;;;;;;;6143686;23;19920;-83
2022/11/29 05:47:59;;;;;;;;;;;;;;;;;;6144034;23;19920;-86
2022/11/29 05:50:25;;;;;;;;;;;;;;;;;;6147194;23;19916;-83
2022/11/29 05:52:51;;;;;;;;;;;;;;;;;;6143230;23;20248;-83
2022/11/29 05:55:17;;;;;;;;;;;;;;;;;;6144809;23;19916;-86
2022/11/29 05:57:42;;;;;;;;;;;;;;;;;;6143154;23;19920;-82
2022/11/29 06:00:08;;;;;;;;;;;;;;;;;;6144032;23;19923;-83
2022/11/29 06:02:34;;;;;;;;;;;;;;;;;;6142883;23;19916;-83
2022/11/29 06:05:02;;;;;;;;;;;;;;;;;;6143861;23;19987;-82
2022/11/29 06:07:29;;;;;;;;;;;;;;;;;;6142931;23;19983;-83
2022/11/29 06:09:55;;;;;;;;;;;;;;;;;;6145234;23;19916;-82
2022/11/29 06:12:21;;;;;;;;;;;;;;;;;;6121284;23;19923;-83
2022/11/29 06:14:47;;;;;;;;;;;;;;;;;;6145432;23;19916;-81
2022/11/29 06:17:13;;;;;;;;;;;;;;;;;;6119863;23;19916;-82
2022/11/29 06:19:39;;;;;;;;;;;;;;;;;;6143162;23;19920;-81
2022/11/29 06:22:05;;;;;;;;;;;;;;;;;;6145121;23;19927;-81
2022/11/29 06:24:33;;;;;;;;;;;;;;;;;;6144514;23;20264;-81
2022/11/29 06:26:59;;;;;;;;;;;;;;;;;;6120213;23;20359;-81
2022/11/29 06:29:25;;;;;;;;;;;;;;;;;;6145488;23;19939;-83
2022/11/29 06:31:51;;;;;;;;;;;;;;;;;;6146127;23;20349;-81
2022/11/29 06:34:17;;;;;;;;;;;;;;;;;;6145723;23;20428;-81
2022/11/29 06:36:43;;;;;;;;;;;;;;;;;;6146368;23;19927;-82
2022/11/29 06:39:09;;;;;;;;;;;;;;;;;;6145126;23;19916;-82
2022/11/29 06:41:35;;;;;;;;;;;;;;;;;;6146152;23;19967;-83
2022/11/29 06:44:01;;;;;;;;;;;;;;;;;;6145678;23;20383;-81
2022/11/29 06:46:27;;;;;;;;;;;;;;;;;;6145773;23;20333;-82
2022/11/29 06:48:53;;;;;;;;;;;;;;;;;;6146408;23;20076;-82
2022/11/29 06:51:19;;;;;;;;;;;;;;;;;;6145234;23;19920;-83
2022/11/29 06:53:45;;;;;;;;;;;;;;;;;;6146195;23;19920;-81
2022/11/29 06:56:11;;;;;;;;;;;;;;;;;;6122223;23;19916;-81
2022/11/29 06:58:37;;;;;;;;;;;;;;;;;;6121018;23;20314;-81
2022/11/29 07:01:03;;;;;;;;;;;;;;;;;;6144927;23;20014;-82
2022/11/29 07:03:29;;;;;;;;;;;;;;;;;;6144867;23;19916;-82
2022/11/29 07:05:55;;;;;;;;;;;;;;;;;;6145782;23;19935;-82
2022/11/29 07:08:21;;;;;;;;;;;;;;;;;;6145323;23;19916;-82
2022/11/29 07:10:48;;;;;;;;;;;;;;;;;;6119898;23;19916;-82
2022/11/29 07:13:14;;;;;;;;;;;;;;;;;;6171606;23;19916;-81
2022/11/29 07:15:40;;;;;;;;;;;;;;;;;;6145689;23;20406;-81
2022/11/29 07:18:06;;;;;;;;;;;;;;;;;;6145196;23;20298;-81
2022/11/29 07:20:32;;;;;;;;;;;;;;;;;;6144909;23;19920;-82
2022/11/29 07:22:58;;;;;;;;;;;;;;;;;;6144851;23;20331;-82
2022/11/29 07:25:24;;;;;;;;;;;;;;;;;;6145543;23;19966;-82
2022/11/29 07:27:51;;;;;;;;;;;;;;;;;;6145380;23;19916;-81
2022/11/29 07:30:17;;;;;;;;;;;;;;;;;;6144816;23;19916;-81
2022/11/29 07:32:42;;;;;;;;;;;;;;;;;;6171063;23;19951;-81
2022/11/29 07:35:08;;;;;;;;;;;;;;;;;;6144367;23;19948;-81
2022/11/29 07:37:34;;;;;;;;;;;;;;;;;;6145381;23;19920;-82
2022/11/29 07:40:00;;;;;;;;;;;;;;;;;;6145947;23;19923;-82
2022/11/29 07:42:26;;;;;;;;;;;;;;;;;;6145060;23;20407;-82
2022/11/29 07:44:52;;;;;;;;;;;;;;;;;;6144677;23;20272;-82
2022/11/29 07:47:18;;;;;;;;;;;;;;;;;;6144661;23;19920;-82
2022/11/29 07:49:44;;;;;;;;;;;;;;;;;;6120033;23;19923;-82
2022/11/29 07:52:10;;;;;;;;;;;;;;;;;;6146305;23;20331;-82
2022/11/29 07:54:36;;;;;;;;;;;;;;;;;;6144209;23;19920;-82
2022/11/29 07:57:02;;;;;;;;;;;;;;;;;;6171071;23;20458;-81
2022/11/29 07:59:28;;;;;;;;;;;;;;;;;;6121519;23;19987;-82
2022/11/29 08:01:54;;;;;;;;;;;;;;;;;;6144578;23;20276;-82
2022/11/29 08:04:20;;;;;;;;;;;;;;;;;;6145302;23;20340;-82
2022/11/29 08:06:46;;;;;;;;;;;;;;;;;;6145252;23;19916;-82
2022/11/29 08:09:12;;;;;;;;;;;;;;;;;;6146111;23;19967;-82
2022/11/29 08:11:38;;;;;;;;;;;;;;;;;;6144461;23;19959;-82
2022/11/29 08:14:04;;;;;;;;;;;;;;;;;;6120221;23;20448;-82
2022/11/29 08:16:30;;;;;;;;;;;;;;;;;;6144896;23;19926;-82
2022/11/29 08:18:56;;;;;;;;;;;;;;;;;;6144932;23;20375;-81
2022/11/29 08:21:22;;;;;;;;;;;;;;;;;;6145032;23;19925;-81
2022/11/29 08:23:47;;;;;;;;;;;;;;;;;;6145636;23;19920;-81
2022/11/29 08:26:13;;;;;;;;;;;;;;;;;;6144345;23;19916;-82
2022/11/29 08:28:39;;;;;;;;;;;;;;;;;;6172114;23;19920;-82
2022/11/29 08:31:05;;;;;;;;;;;;;;;;;;6145040;23;19912;-82
2022/11/29 08:33:31;;;;;;;;;;;;;;;;;;6144282;23;19916;-82
2022/11/29 08:35:57;;;;;;;;;;;;;;;;;;6120819;23;19916;-81
2022/11/29 08:38:23;;;;;;;;;;;;;;;;;;6145815;23;19991;-82
2022/11/29 08:40:49;;;;;;;;;;;;;;;;;;6144893;23;19987;-82
2022/11/29 08:43:15;;;;;;;;;;;;;;;;;;6144726;23;19920;-82
2022/11/29 08:45:41;;;;;;;;;;;;;;;;;;6144957;23;19920;-82
2022/11/29 08:48:07;;;;;;;;;;;;;;;;;;6146034;23;19913;-82
2022/11/29 08:50:33;;;;;;;;;;;;;;;;;;6120389;23;19916;-83
2022/11/29 08:55:45;;;;;;;;;;;;;;;;;;6161912;23;19916;-83
2022/11/29 08:58:11;;;;;;;;;;;;;;;;;;6166485;23;19916;-82
2022/11/29 09:00:37;;;;;;;;;;;;;;;;;;6146159;23;20319;-82
2022/11/29 09:05:48;;;;;;;;;;;;;;;;;;6162272;23;19923;-81
2022/11/29 09:08:14;;;;;;;;;;;;;;;;;;6170695;23;20401;-82
2022/11/29 09:10:40;;;;;;;;;;;;;;;;;;6144379;23;19916;-82
2022/11/29 09:13:05;;;;;;;;;;;;;;;;;;6144657;23;20232;-82
2022/11/29 09:15:31;;;;;;;;;;;;;;;;;;6145129;23;20311;-82
2022/11/29 09:17:57;;;;;;;;;;;;;;;;;;6144467;23;19916;-80
2022/11/29 09:20:24;;;;;;;;;;;;;;;;;;6143442;23;20567;-81
2022/11/29 09:22:50;;;;;;;;;;;;;;;;;;6144410;23;19991;-82
2022/11/29 09:25:16;;;;;;;;;;;;;;;;;;6145863;23;19916;-81
2022/11/29 09:27:41;;;;;;;;;;;;;;;;;;6144241;23;20580;-82
2022/11/29 09:30:07;;;;;;;;;;;;;;;;;;6144702;23;19916;-81
2022/11/29 09:32:33;;;;;;;;;;;;;;;;;;6145300;23;19919;-80
2022/11/29 09:34:59;;;;;;;;;;;;;;;;;;6143279;23;19916;-81
2022/11/29 09:37:25;;;;;;;;;;;;;;;;;;6145649;23;19916;-82
2022/11/29 09:39:51;;;;;;;;;;;;;;;;;;6143970;23;19916;-82
2022/11/29 09:42:17;;;;;;;;;;;;;;;;;;6146179;23;20385;-82
2022/11/29 09:44:43;;;;;;;;;;;;;;;;;;6145662;23;19966;-82
2022/11/29 09:47:09;;;;;;;;;;;;;;;;;;6124158;23;19950;-82
2022/11/29 09:49:35;;;;;;;;;;;;;;;;;;6146307;23;20237;-80
2022/11/29 09:52:01;;;;;;;;;;;;;;;;;;6121771;23;19916;-83
2022/11/29 09:54:27;;;;;;;;;;;;;;;;;;6147815;23;19939;-86
2022/11/29 09:56:54;;;;;;;;;;;;;;;;;;6145444;23;19967;-85
2022/11/29 09:59:24;;;;;;;;;;;;;;;;;;6149944;23;20693;-84
2022/11/29 10:01:50;;;;;;;;;;;;;;;;;;6146385;23;19927;-81
2022/11/29 10:04:16;;;;;;;;;;;;;;;;;;6122410;23;19916;-82
2022/11/29 10:06:42;;;;;;;;;;;;;;;;;;6122241;23;19983;-84
2022/11/29 10:09:08;;;;;;;;;;;;;;;;;;6149855;23;19923;-85
2022/11/29 10:11:34;;;;;;;;;;;;;;;;;;6149155;23;19916;-83
2022/11/29 10:14:00;;;;;;;;;;;;;;;;;;6122115;23;19923;-82
2022/11/29 10:16:26;;;;;;;;;;;;;;;;;;6148454;23;19923;-83
2022/11/29 10:18:52;;;;;;;;;;;;;;;;;;6146650;23;20051;-83
2022/11/29 10:21:18;;;;;;;;;;;;;;;;;;6144200;23;19920;-83
2022/11/29 10:23:43;;;;;;;;;;;;;;;;;;6116923;23;19987;-82
2022/11/29 10:26:09;;;;;;;;;;;;;;;;;;6095425;23;19932;-83
2022/11/29 10:28:35;;;;;;;;;;;;;;;;;;6092532;23;20217;-83
2022/11/29 10:31:01;;;;;;;;;;;;;;;;;;6094754;23;19920;-84
2022/11/29 10:33:27;;;;;;;;;;;;;;;;;;6117618;23;19921;-84
2022/11/29 10:35:53;;;;;;;;;;;;;;;;;;6120671;23;20142;-83
2022/11/29 10:38:19;;;;;;;;;;;;;;;;;;6092325;23;19920;-83
2022/11/29 10:40:45;;;;;;;;;;;;;;;;;;6119151;23;19987;-83
2022/11/29 10:43:11;;;;;;;;;;;;;;;;;;6116101;23;19916;-82
2022/11/29 10:45:37;;;;;;;;;;;;;;;;;;6117497;23;19927;-81
2022/11/29 10:48:03;;;;;;;;;;;;;;;;;;6116874;23;20353;-84
2022/11/29 10:50:29;;;;;;;;;;;;;;;;;;6120375;23;19940;-84
2022/11/29 10:52:55;;;;;;;;;;;;;;;;;;6117665;23;20347;-83
2022/11/29 10:55:21;;;;;;;;;;;;;;;;;;6095551;23;20325;-78
2022/11/29 10:57:47;;;;;;;;;;;;;;;;;;6114564;23;20561;-79
2022/11/29 11:00:13;;;;;;;;;;;;;;;;;;6117660;23;20442;-79
2022/11/29 11:02:39;;;;;;;;;;;;;;;;;;6091743;23;20188;-82
2022/11/29 11:05:05;;;;;;;;;;;;;;;;;;6094406;23;19991;-82
2022/11/29 11:07:32;;;;;;;;;;;;;;;;;;6116690;23;20301;-81
2022/11/29 11:09:58;;;;;;;;;;;;;;;;;;6093282;23;19921;-83
2022/11/29 11:12:24;;;;;;;;;;;;;;;;;;6090982;23;20209;-83
2022/11/29 11:14:50;;;;;;;;;;;;;;;;;;6117812;23;19916;-82
2022/11/29 11:17:16;;;;;;;;;;;;;;;;;;6118059;23;19917;-80
2022/11/29 11:19:42;;;;;;;;;;;;;;;;;;6116629;23;19916;-82
2022/11/29 11:22:08;;;;;;;;;;;;;;;;;;6132281;23;20403;-81
2022/11/29 11:24:34;;;;;;;;;;;;;;;;;;6139341;23;19967;-82
2022/11/29 11:27:00;;;;;;;;;;;;;;;;;;6143095;23;19916;-82
2022/11/29 11:29:26;;;;;;;;;;;;;;;;;;6141143;23;19970;-83
2022/11/29 11:31:52;;;;;;;;;;;;;;;;;;6143765;23;20127;-84
2022/11/29 11:34:18;;;;;;;;;;;;;;;;;;6140055;23;19916;-87
2022/11/29 11:36:43;;;;;;;;;;;;;;;;;;6119206;23;19923;-91
2022/11/29 11:39:09;;;;;;;;;;;;;;;;;;6116818;23;19923;-83
2022/11/29 11:44:20;;;;;;;;;;;;;;;;;;6145754;23;20492;-88
2022/11/29 11:46:46;;;;;;;;;;;;;;;;;;6149030;23;19995;-90
2022/11/29 11:49:12;;;;;;;;;;;;;;;;;;6150096;23;20322;-91
2022/11/29 11:51:38;;;;;;;;;;;;;;;;;;6149558;23;19964;-93
2022/11/29 11:54:04;;;;;;;;;;;;;;;;;;6124274;23;19943;-91
2022/11/29 11:56:30;;;;;;;;;;;;;;;;;;6121597;23;19966;-91
2022/11/29 11:58:56;;;;;;;;;;;;;;;;;;6144515;23;19920;-88
2022/11/29 12:01:22;;;;;;;;;;;;;;;;;;6121906;23;19955;-82
2022/11/29 12:03:48;;;;;;;;;;;;;;;;;;6149105;23;20336;-81
2022/11/29 12:06:14;;;;;;;;;;;;;;;;;;6141911;23;19928;-81
2022/11/29 12:08:40;;;;;;;;;;;;;;;;;;6141112;23;20043;-82
2022/11/29 12:11:06;;;;;;;;;;;;;;;;;;6144181;23;19916;-80
2022/11/29 12:13:32;;;;;;;;;;;;;;;;;;6140922;23;19929;-87
2022/11/29 12:15:58;;;;;;;;;;;;;;;;;;6142699;23;19916;-84
2022/11/29 12:18:24;;;;;;;;;;;;;;;;;;6141016;23;19917;-85
2022/11/29 12:20:50;;;;;;;;;;;;;;;;;;6142305;23;20368;-82
2022/11/29 12:23:17;;;;;;;;;;;;;;;;;;6145025;23;20026;-85
2022/11/29 12:25:43;;;;;;;;;;;;;;;;;;6148192;23;19920;-87
2022/11/29 12:28:09;;;;;;;;;;;;;;;;;;6122646;23;19920;-88
2022/11/29 12:30:35;;;;;;;;;;;;;;;;;;6151117;23;19946;-88
2022/11/29 12:33:01;;;;;;;;;;;;;;;;;;6179395;23;20077;-87
2022/11/29 12:35:26;;;;;;;;;;;;;;;;;;6151583;23;19982;-91
2022/11/29 12:37:52;;;;;;;;;;;;;;;;;;6151802;23;20260;-87
2022/11/29 12:40:18;;;;;;;;;;;;;;;;;;6144876;23;19927;-86
2022/11/29 12:42:44;;;;;;;;;;;;;;;;;;6126171;23;20414;-87
2022/11/29 12:45:10;;;;;;;;;;;;;;;;;;6121746;23;19916;-87
2022/11/29 12:47:36;;;;;;;;;;;;;;;;;;6150587;23;19927;-88
2022/11/29 12:50:03;;;;;;;;;;;;;;;;;;6152507;23;19962;-89
2022/11/29 12:52:29;;;;;;;;;;;;;;;;;;6148749;23;20310;-93
2022/11/29 12:54:55;;;;;;;;;;;;;;;;;;6150149;23;19995;-87
2022/11/29 12:57:21;;;;;;;;;;;;;;;;;;6146632;23;19931;-85
2022/11/29 12:59:47;;;;;;;;;;;;;;;;;;6148179;23;20004;-85
2022/11/29 13:02:13;;;;;;;;;;;;;;;;;;6151633;23;19916;-88
2022/11/29 13:04:39;;;;;;;;;;;;;;;;;;6146288;23;20633;-87
2022/11/29 13:07:05;;;;;;;;;;;;;;;;;;6148767;23;19916;-87
2022/11/29 13:09:31;;;;;;;;;;;;;;;;;;6146128;23;20339;-87
2022/11/29 13:11:57;;;;;;;;;;;;;;;;;;6150424;23;19927;-89
2022/11/29 13:14:26;;;;;;;;;;;;;;;;;;6148926;23;20036;-87
2022/11/29 13:16:52;;;;;;;;;;;;;;;;;;6146147;23;19920;-88
2022/11/29 13:19:18;;;;;;;;;;;;;;;;;;6150382;23;20292;-87
2022/11/29 13:21:44;;;;;;;;;;;;;;;;;;6145598;23;20011;-87
2022/11/29 13:24:10;;;;;;;;;;;;;;;;;;6151854;23;20129;-87
2022/11/29 13:26:36;;;;;;;;;;;;;;;;;;6148482;23;20315;-90
2022/11/29 13:29:02;;;;;;;;;;;;;;;;;;6149287;23;19916;-90
2022/11/29 13:31:28;;;;;;;;;;;;;;;;;;6149648;23;19923;-89
2022/11/29 13:33:54;;;;;;;;;;;;;;;;;;6149261;23;19920;-90
2022/11/29 13:36:20;;;;;;;;;;;;;;;;;;6147437;23;20233;-88
2022/11/29 13:38:46;;;;;;;;;;;;;;;;;;6124821;23;20448;-87
2022/11/29 13:41:11;;;;;;;;;;;;;;;;;;6145954;23;19923;-87
2022/11/29 13:43:37;;;;;;;;;;;;;;;;;;6150266;23;19920;-87
2022/11/29 13:46:03;;;;;;;;;;;;;;;;;;6143727;23;19920;-75
2022/11/29 13:48:29;;;;;;;;;;;;;;;;;;6144382;23;19915;-77
2022/11/29 13:50:55;;;;;;;;;;;;;;;;;;6143574;23;20313;-74
2022/11/29 13:53:22;;;;;;;;;;;;;;;;;;6170560;23;19959;-74
2022/11/29 13:55:48;;;;;;;;;;;;;;;;;;6169701;23;20287;-75
2022/11/29 13:58:14;;;;;;;;;;;;;;;;;;6170906;23;20164;-73
2022/11/29 14:00:40;;;;;;;;;;;;;;;;;;6170011;23;19979;-72
2022/11/29 14:03:06;;;;;;;;;;;;;;;;;;6169398;23;19920;-71
2022/11/29 14:05:32;;;;;;;;;;;;;;;;;;6170158;23;19982;-72
2022/11/29 14:07:58;;;;;;;;;;;;;;;;;;6169911;23;20333;-71
2022/11/29 14:10:23;;;;;;;;;;;;;;;;;;6143522;23;20290;-71
2022/11/29 14:12:49;;;;;;;;;;;;;;;;;;6143707;23;19923;-71
2022/11/29 14:15:15;;;;;;;;;;;;;;;;;;6143726;23;19916;-71
2022/11/29 14:17:41;;;;;;;;;;;;;;;;;;6142983;23;20014;-71
2022/11/29 14:20:07;;;;;;;;;;;;;;;;;;6169614;23;20392;-71
2022/11/29 14:22:34;;;;;;;;;;;;;;;;;;6169252;23;19920;-72
2022/11/29 14:25:00;;;;;;;;;;;;;;;;;;6170405;23;19943;-72
2022/11/29 14:27:26;;;;;;;;;;;;;;;;;;6169369;23;20337;-72
2022/11/29 14:29:52;;;;;;;;;;;;;;;;;;6144533;23;19995;-73
2022/11/29 14:32:18;;;;;;;;;;;;;;;;;;6145794;23;20386;-73
2022/11/29 14:34:44;;;;;;;;;;;;;;;;;;6145096;23;19916;-72
2022/11/29 14:37:10;;;;;;;;;;;;;;;;;;6145050;23;19958;-72
2022/11/29 14:39:36;;;;;;;;;;;;;;;;;;6121202;23;20100;-72
2022/11/29 14:42:02;;;;;;;;;;;;;;;;;;6145604;23;19924;-73
2022/11/29 14:44:28;;;;;;;;;;;;;;;;;;6145590;23;20384;-72
2022/11/29 14:46:54;;;;;;;;;;;;;;;;;;6145457;23;19931;-73
2022/11/29 14:49:20;;;;;;;;;;;;;;;;;;6145032;23;20251;-73
2022/11/29 14:51:46;;;;;;;;;;;;;;;;;;6145172;23;19916;-72
2022/11/29 14:54:12;;;;;;;;;;;;;;;;;;6171623;23;19927;-73
2022/11/29 14:56:38;;;;;;;;;;;;;;;;;;6144561;23;20402;-73
2022/11/29 14:59:04;;;;;;;;;;;;;;;;;;6144377;23;20022;-73
2022/11/29 15:01:30;;;;;;;;;;;;;;;;;;6145080;23;19916;-74
2022/11/29 15:03:56;;;;;;;;;;;;;;;;;;6170095;23;19939;-78
2022/11/29 15:06:22;;;;;;;;;;;;;;;;;;6142746;23;20291;-74
2022/11/29 15:08:50;;;;;;;;;;;;;;;;;;6144753;23;20291;-74
2022/11/29 15:11:16;;;;;;;;;;;;;;;;;;6144541;23;19920;-75
2022/11/29 15:13:42;;;;;;;;;;;;;;;;;;6120954;23;19947;-74
2022/11/29 15:16:08;;;;;;;;;;;;;;;;;;6145561;23;19919;-74
2022/11/29 15:18:34;;;;;;;;;;;;;;;;;;6145364;23;19940;-85
2022/11/29 15:21:00;;;;;;;;;;;;;;;;;;6121101;23;19923;-85
2022/11/29 15:23:26;;;;;;;;;;;;;;;;;;6127790;23;19966;-87
2022/11/29 15:25:52;;;;;;;;;;;;;;;;;;6122894;23;19916;-86
2022/11/29 15:28:18;;;;;;;;;;;;;;;;;;6154866;23;19998;-89
2022/11/29 15:30:43;;;;;;;;;;;;;;;;;;6152803;23;19911;-88
2022/11/29 15:33:09;;;;;;;;;;;;;;;;;;6148536;23;19923;-87
2022/11/29 15:35:35;;;;;;;;;;;;;;;;;;6124635;23;20395;-89
2022/11/29 15:38:01;;;;;;;;;;;;;;;;;;6149847;23;19916;-88
2022/11/29 15:40:33;;;;;;;;;;;;;;;;;;6125991;23;19970;-86
2022/11/29 15:43:00;;;;;;;;;;;;;;;;;;6149310;23;19920;-89
2022/11/29 15:45:26;;;;;;;;;;;;;;;;;;6157077;23;19928;-92
2022/11/29 15:47:52;;;;;;;;;;;;;;;;;;6125492;23;19954;-89
2022/11/29 15:50:18;;;;;;;;;;;;;;;;;;6155674;23;19931;-90
2022/11/29 15:52:44;;;;;;;;;;;;;;;;;;6127685;23;19926;-92
2022/11/29 15:55:10;;;;;;;;;;;;;;;;;;6129997;23;19931;-90
2022/11/29 15:57:36;;;;;;;;;;;;;;;;;;6122729;23;20344;-87
2022/11/29 16:00:02;;;;;;;;;;;;;;;;;;6148540;23;20284;-87
2022/11/29 16:02:28;;;;;;;;;;;;;;;;;;6144606;23;19920;-85
2022/11/29 16:04:54;;;;;;;;;;;;;;;;;;6152167;23;19927;-86
2022/11/29 16:07:20;;;;;;;;;;;;;;;;;;6146962;23;19916;-91
2022/11/29 16:09:46;;;;;;;;;;;;;;;;;;6128593;23;19920;-89
2022/11/29 16:12:12;;;;;;;;;;;;;;;;;;6124398;23;19940;-89
2022/11/29 16:14:38;;;;;;;;;;;;;;;;;;6151596;23;19920;-89
2022/11/29 16:17:04;;;;;;;;;;;;;;;;;;6147980;23;20288;-87
2022/11/29 16:19:30;;;;;;;;;;;;;;;;;;6154308;23;19900;-89
2022/11/29 16:21:56;;;;;;;;;;;;;;;;;;6147407;23;19931;-92
2022/11/29 16:24:22;;;;;;;;;;;;;;;;;;6130967;23;19923;-92
2022/11/29 16:26:48;;;;;;;;;;;;;;;;;;6150206;23;19987;-91
2022/11/29 16:29:13;;;;;;;;;;;;;;;;;;6126415;23;20501;-90
2022/11/29 16:31:39;;;;;;;;;;;;;;;;;;6151407;23;19920;-91
2022/11/29 16:34:05;;;;;;;;;;;;;;;;;;6124404;23;20620;-89
2022/11/29 16:36:31;;;;;;;;;;;;;;;;;;6157310;23;20344;-91
2022/11/29 16:38:57;;;;;;;;;;;;;;;;;;6149650;23;19916;-91
2022/11/29 16:41:23;;;;;;;;;;;;;;;;;;6155222;23;20402;-91
2022/11/29 16:43:52;;;;;;;;;;;;;;;;;;6150313;23;19912;-88